sensor_id;sensor_type;location;lat;lon;timestamp;P1;durP1;ratioP1;P2;durP2;ratioP2
74170;SDS011;62526;50.948;6.590;2022-09-03T00:00:22;3.30;;;1.83;;
74170;SDS011;62526;50.948;6.590;2022-09-03T00:02:52;5.07;;;2.17;;
74170;SDS011;62526;50.948;6.590;2022-09-03T00:05:28;5.65;;;2.20;;
74170;SDS011;62526;50.948;6.590;2022-09-03T00:08:03;4.43;;;2.20;;
74170;SDS011;62526;50.948;6.590;2022-09-03T00:10:49;4.93;;;1.80;;
74170;SDS011;62526;50.948;6.590;2022-09-03T00:13:32;5.07;;;1.98;;
74170;SDS011;62526;50.948;6.590;2022-09-03T00:16:02;7.30;;;2.20;;
74170;SDS011;62526;50.948;6.590;2022-09-03T00:18:30;4.72;;;2.15;;
74170;SDS011;62526;50.948;6.590;2022-09-03T00:20:57;4.47;;;1.80;;
74170;SDS011;62526;50.948;6.590;2022-09-03T00:23:25;6.55;;;2.50;;
74170;SDS011;62526;50.948;6.590;2022-09-03T00:25:55;3.55;;;2.55;;
74170;SDS011;62526;50.948;6.590;2022-09-03T00:28:27;3.33;;;2.17;;
74170;SDS011;62526;50.948;6.590;2022-09-03T00:30:58;4.43;;;2.60;;
74170;SDS011;62526;50.948;6.590;2022-09-03T00:33:21;2.97;;;1.85;;
74170;SDS011;62526;50.948;6.590;2022-09-03T00:35:49;6.40;;;2.47;;
74170;SDS011;62526;50.948;6.590;2022-09-03T00:38:15;5.85;;;2.05;;
74170;SDS011;62526;50.948;6.590;2022-09-03T00:40:46;7.78;;;2.33;;
74170;SDS011;62526;50.948;6.590;2022-09-03T00:43:20;10.85;;;2.40;;
74170;SDS011;62526;50.948;6.590;2022-09-03T00:45:48;4.93;;;2.42;;
74170;SDS011;62526;50.948;6.590;2022-09-03T00:48:20;3.78;;;2.03;;
74170;SDS011;62526;50.948;6.590;2022-09-03T00:50:56;3.03;;;2.05;;
74170;SDS011;62526;50.948;6.590;2022-09-03T00:53:27;7.12;;;2.30;;
74170;SDS011;62526;50.948;6.590;2022-09-03T00:56:01;5.18;;;2.53;;
74170;SDS011;62526;50.948;6.590;2022-09-03T00:58:32;5.90;;;2.60;;
74170;SDS011;62526;50.948;6.590;2022-09-03T01:01:00;3.65;;;2.20;;
74170;SDS011;62526;50.948;6.590;2022-09-03T01:03:34;3.75;;;2.30;;
74170;SDS011;62526;50.948;6.590;2022-09-03T01:06:18;4.45;;;2.37;;
74170;SDS011;62526;50.948;6.590;2022-09-03T01:09:08;4.40;;;2.42;;
74170;SDS011;62526;50.948;6.590;2022-09-03T01:11:40;6.90;;;2.47;;
74170;SDS011;62526;50.948;6.590;2022-09-03T01:14:17;2.47;;;2.10;;
74170;SDS011;62526;50.948;6.590;2022-09-03T01:16:50;4.32;;;2.20;;
74170;SDS011;62526;50.948;6.590;2022-09-03T01:21:58;6.82;;;2.45;;
74170;SDS011;62526;50.948;6.590;2022-09-03T01:24:46;7.12;;;2.30;;
74170;SDS011;62526;50.948;6.590;2022-09-03T01:27:17;4.80;;;2.40;;
74170;SDS011;62526;50.948;6.590;2022-09-03T01:29:50;6.32;;;2.87;;
74170;SDS011;62526;50.948;6.590;2022-09-03T01:32:22;8.25;;;2.45;;
74170;SDS011;62526;50.948;6.590;2022-09-03T01:36:01;4.28;;;1.98;;
74170;SDS011;62526;50.948;6.590;2022-09-03T01:37:56;6.68;;;2.22;;
74170;SDS011;62526;50.948;6.590;2022-09-03T01:40:26;5.05;;;2.22;;
74170;SDS011;62526;50.948;6.590;2022-09-03T01:43:03;3.90;;;2.42;;
74170;SDS011;62526;50.948;6.590;2022-09-03T01:45:50;5.15;;;2.03;;
74170;SDS011;62526;50.948;6.590;2022-09-03T01:48:22;4.45;;;2.20;;
74170;SDS011;62526;50.948;6.590;2022-09-03T01:50:50;7.07;;;2.20;;
74170;SDS011;62526;50.948;6.590;2022-09-03T01:58:48;2.55;;;1.92;;
74170;SDS011;62526;50.948;6.590;2022-09-03T02:01:21;6.55;;;1.83;;
74170;SDS011;62526;50.948;6.590;2022-09-03T02:03:48;3.45;;;1.87;;
74170;SDS011;62526;50.948;6.590;2022-09-03T02:06:15;3.67;;;2.12;;
74170;SDS011;62526;50.948;6.590;2022-09-03T02:08:42;5.10;;;1.83;;
74170;SDS011;62526;50.948;6.590;2022-09-03T02:11:09;4.50;;;2.58;;
74170;SDS011;62526;50.948;6.590;2022-09-03T02:13:37;3.55;;;1.90;;
74170;SDS011;62526;50.948;6.590;2022-09-03T02:16:09;5.25;;;1.90;;
74170;SDS011;62526;50.948;6.590;2022-09-03T02:18:36;2.47;;;2.28;;
74170;SDS011;62526;50.948;6.590;2022-09-03T02:21:02;3.97;;;1.90;;
74170;SDS011;62526;50.948;6.590;2022-09-03T02:23:30;3.20;;;1.90;;
74170;SDS011;62526;50.948;6.590;2022-09-03T02:25:59;4.37;;;2.25;;
74170;SDS011;62526;50.948;6.590;2022-09-03T02:28:27;7.30;;;2.20;;
74170;SDS011;62526;50.948;6.590;2022-09-03T02:30:54;2.47;;;1.90;;
74170;SDS011;62526;50.948;6.590;2022-09-03T02:33:23;4.20;;;2.25;;
74170;SDS011;62526;50.948;6.590;2022-09-03T02:35:50;3.12;;;2.08;;
74170;SDS011;62526;50.948;6.590;2022-09-03T02:38:18;3.45;;;2.08;;
74170;SDS011;62526;50.948;6.590;2022-09-03T02:40:45;4.65;;;2.10;;
74170;SDS011;62526;50.948;6.590;2022-09-03T02:43:16;3.70;;;2.15;;
74170;SDS011;62526;50.948;6.590;2022-09-03T02:45:46;4.85;;;2.05;;
74170;SDS011;62526;50.948;6.590;2022-09-03T02:48:11;5.80;;;2.10;;
74170;SDS011;62526;50.948;6.590;2022-09-03T02:50:40;5.28;;;1.92;;
74170;SDS011;62526;50.948;6.590;2022-09-03T02:53:07;4.78;;;1.92;;
74170;SDS011;62526;50.948;6.590;2022-09-03T02:55:34;4.25;;;2.45;;
74170;SDS011;62526;50.948;6.590;2022-09-03T02:58:01;5.97;;;2.45;;
74170;SDS011;62526;50.948;6.590;2022-09-03T03:00:28;5.78;;;1.80;;
74170;SDS011;62526;50.948;6.590;2022-09-03T03:02:56;4.68;;;1.90;;
74170;SDS011;62526;50.948;6.590;2022-09-03T03:08:04;2.70;;;2.00;;
74170;SDS011;62526;50.948;6.590;2022-09-03T03:10:31;4.05;;;2.30;;
74170;SDS011;62526;50.948;6.590;2022-09-03T03:12:59;4.20;;;2.22;;
74170;SDS011;62526;50.948;6.590;2022-09-03T03:15:26;7.43;;;2.20;;
74170;SDS011;62526;50.948;6.590;2022-09-03T03:17:55;4.97;;;1.90;;
74170;SDS011;62526;50.948;6.590;2022-09-03T03:20:22;4.03;;;1.98;;
74170;SDS011;62526;50.948;6.590;2022-09-03T03:22:49;3.40;;;1.80;;
74170;SDS011;62526;50.948;6.590;2022-09-03T03:25:16;5.93;;;2.47;;
74170;SDS011;62526;50.948;6.590;2022-09-03T03:27:43;2.03;;;1.42;;
74170;SDS011;62526;50.948;6.590;2022-09-03T03:30:10;2.65;;;1.92;;
74170;SDS011;62526;50.948;6.590;2022-09-03T03:32:38;3.92;;;1.70;;
74170;SDS011;62526;50.948;6.590;2022-09-03T03:35:05;5.68;;;2.17;;
74170;SDS011;62526;50.948;6.590;2022-09-03T03:37:33;1.98;;;1.60;;
74170;SDS011;62526;50.948;6.590;2022-09-03T03:40:01;6.18;;;1.77;;
74170;SDS011;62526;50.948;6.590;2022-09-03T03:42:28;2.75;;;1.50;;
74170;SDS011;62526;50.948;6.590;2022-09-03T03:44:55;2.95;;;1.60;;
74170;SDS011;62526;50.948;6.590;2022-09-03T03:47:23;4.35;;;1.58;;
74170;SDS011;62526;50.948;6.590;2022-09-03T03:49:49;2.80;;;1.70;;
74170;SDS011;62526;50.948;6.590;2022-09-03T03:52:16;2.03;;;1.60;;
74170;SDS011;62526;50.948;6.590;2022-09-03T03:54:44;3.03;;;1.40;;
74170;SDS011;62526;50.948;6.590;2022-09-03T03:57:11;4.32;;;1.40;;
74170;SDS011;62526;50.948;6.590;2022-09-03T03:59:39;3.40;;;1.90;;
74170;SDS011;62526;50.948;6.590;2022-09-03T04:02:06;2.97;;;1.70;;
74170;SDS011;62526;50.948;6.590;2022-09-03T04:04:33;4.10;;;1.92;;
74170;SDS011;62526;50.948;6.590;2022-09-03T04:07:00;2.20;;;1.77;;
74170;SDS011;62526;50.948;6.590;2022-09-03T04:09:27;5.85;;;1.50;;
74170;SDS011;62526;50.948;6.590;2022-09-03T04:11:55;1.75;;;1.55;;
74170;SDS011;62526;50.948;6.590;2022-09-03T04:14:22;1.80;;;1.55;;
74170;SDS011;62526;50.948;6.590;2022-09-03T04:16:49;2.42;;;1.80;;
74170;SDS011;62526;50.948;6.590;2022-09-03T04:19:16;4.47;;;1.80;;
74170;SDS011;62526;50.948;6.590;2022-09-03T04:21:44;2.33;;;1.70;;
74170;SDS011;62526;50.948;6.590;2022-09-03T04:24:12;2.67;;;1.67;;
74170;SDS011;62526;50.948;6.590;2022-09-03T04:26:39;2.85;;;1.50;;
74170;SDS011;62526;50.948;6.590;2022-09-03T04:29:08;5.15;;;1.60;;
74170;SDS011;62526;50.948;6.590;2022-09-03T04:31:34;3.40;;;1.50;;
74170;SDS011;62526;50.948;6.590;2022-09-03T04:34:01;1.40;;;1.30;;
74170;SDS011;62526;50.948;6.590;2022-09-03T04:36:29;5.87;;;1.65;;
74170;SDS011;62526;50.948;6.590;2022-09-03T04:38:57;1.73;;;1.55;;
74170;SDS011;62526;50.948;6.590;2022-09-03T04:41:24;3.97;;;1.83;;
74170;SDS011;62526;50.948;6.590;2022-09-03T04:43:50;3.85;;;2.03;;
74170;SDS011;62526;50.948;6.590;2022-09-03T04:46:19;3.30;;;1.70;;
74170;SDS011;62526;50.948;6.590;2022-09-03T04:48:47;5.70;;;1.70;;
74170;SDS011;62526;50.948;6.590;2022-09-03T04:51:16;3.87;;;1.60;;
74170;SDS011;62526;50.948;6.590;2022-09-03T04:53:43;3.10;;;1.65;;
74170;SDS011;62526;50.948;6.590;2022-09-03T04:56:16;6.30;;;1.75;;
74170;SDS011;62526;50.948;6.590;2022-09-03T04:58:43;3.33;;;1.80;;
74170;SDS011;62526;50.948;6.590;2022-09-03T05:01:15;4.15;;;1.80;;
74170;SDS011;62526;50.948;6.590;2022-09-03T05:03:37;2.28;;;1.60;;
74170;SDS011;62526;50.948;6.590;2022-09-03T05:06:04;3.00;;;1.83;;
74170;SDS011;62526;50.948;6.590;2022-09-03T05:08:32;2.55;;;1.67;;
74170;SDS011;62526;50.948;6.590;2022-09-03T05:10:59;3.92;;;1.90;;
74170;SDS011;62526;50.948;6.590;2022-09-03T05:13:27;4.10;;;2.05;;
74170;SDS011;62526;50.948;6.590;2022-09-03T05:15:59;2.60;;;1.62;;
74170;SDS011;62526;50.948;6.590;2022-09-03T05:18:27;5.18;;;1.95;;
74170;SDS011;62526;50.948;6.590;2022-09-03T05:20:58;3.58;;;1.62;;
74170;SDS011;62526;50.948;6.590;2022-09-03T05:23:26;5.00;;;1.75;;
74170;SDS011;62526;50.948;6.590;2022-09-03T05:25:54;5.93;;;2.17;;
74170;SDS011;62526;50.948;6.590;2022-09-03T05:28:24;6.37;;;2.00;;
74170;SDS011;62526;50.948;6.590;2022-09-03T05:33:23;3.17;;;1.90;;
74170;SDS011;62526;50.948;6.590;2022-09-03T05:35:50;5.95;;;1.92;;
74170;SDS011;62526;50.948;6.590;2022-09-03T05:38:17;2.30;;;1.85;;
74170;SDS011;62526;50.948;6.590;2022-09-03T05:40:44;7.53;;;2.80;;
74170;SDS011;62526;50.948;6.590;2022-09-03T05:43:11;6.45;;;2.10;;
74170;SDS011;62526;50.948;6.590;2022-09-03T05:48:24;5.75;;;1.85;;
74170;SDS011;62526;50.948;6.590;2022-09-03T05:50:59;3.47;;;1.98;;
74170;SDS011;62526;50.948;6.590;2022-09-03T05:53:27;4.43;;;2.00;;
74170;SDS011;62526;50.948;6.590;2022-09-03T05:55:55;3.92;;;2.08;;
74170;SDS011;62526;50.948;6.590;2022-09-03T05:58:29;3.45;;;2.10;;
74170;SDS011;62526;50.948;6.590;2022-09-03T06:00:57;5.62;;;2.33;;
74170;SDS011;62526;50.948;6.590;2022-09-03T06:03:25;6.07;;;2.00;;
74170;SDS011;62526;50.948;6.590;2022-09-03T06:05:52;7.10;;;2.00;;
74170;SDS011;62526;50.948;6.590;2022-09-03T06:08:19;3.05;;;1.87;;
74170;SDS011;62526;50.948;6.590;2022-09-03T06:10:48;4.65;;;1.70;;
74170;SDS011;62526;50.948;6.590;2022-09-03T06:13:14;3.80;;;1.80;;
74170;SDS011;62526;50.948;6.590;2022-09-03T06:15:41;5.18;;;1.90;;
74170;SDS011;62526;50.948;6.590;2022-09-03T06:18:08;3.37;;;1.75;;
74170;SDS011;62526;50.948;6.590;2022-09-03T06:20:35;3.83;;;1.60;;
74170;SDS011;62526;50.948;6.590;2022-09-03T06:23:03;4.62;;;1.95;;
74170;SDS011;62526;50.948;6.590;2022-09-03T06:25:30;4.22;;;2.00;;
74170;SDS011;62526;50.948;6.590;2022-09-03T06:27:57;3.70;;;1.90;;
74170;SDS011;62526;50.948;6.590;2022-09-03T06:30:25;4.70;;;1.60;;
74170;SDS011;62526;50.948;6.590;2022-09-03T06:32:52;8.57;;;2.25;;
74170;SDS011;62526;50.948;6.590;2022-09-03T06:35:19;9.07;;;2.05;;
74170;SDS011;62526;50.948;6.590;2022-09-03T06:37:46;8.85;;;2.17;;
74170;SDS011;62526;50.948;6.590;2022-09-03T06:40:14;4.97;;;2.37;;
74170;SDS011;62526;50.948;6.590;2022-09-03T06:42:41;2.28;;;1.95;;
74170;SDS011;62526;50.948;6.590;2022-09-03T06:45:09;4.82;;;2.20;;
74170;SDS011;62526;50.948;6.590;2022-09-03T06:47:37;5.57;;;2.35;;
74170;SDS011;62526;50.948;6.590;2022-09-03T06:50:05;6.90;;;2.42;;
74170;SDS011;62526;50.948;6.590;2022-09-03T06:52:32;8.23;;;2.10;;
74170;SDS011;62526;50.948;6.590;2022-09-03T06:54:59;5.43;;;2.10;;
74170;SDS011;62526;50.948;6.590;2022-09-03T06:57:26;3.47;;;1.90;;
74170;SDS011;62526;50.948;6.590;2022-09-03T06:59:53;4.78;;;2.35;;
74170;SDS011;62526;50.948;6.590;2022-09-03T07:02:20;4.57;;;2.00;;
74170;SDS011;62526;50.948;6.590;2022-09-03T07:04:47;7.80;;;2.05;;
74170;SDS011;62526;50.948;6.590;2022-09-03T07:07:15;6.37;;;2.42;;
74170;SDS011;62526;50.948;6.590;2022-09-03T07:09:42;9.90;;;2.58;;
74170;SDS011;62526;50.948;6.590;2022-09-03T07:12:09;5.28;;;2.10;;
74170;SDS011;62526;50.948;6.590;2022-09-03T07:14:37;5.35;;;2.08;;
74170;SDS011;62526;50.948;6.590;2022-09-03T07:17:04;4.75;;;2.08;;
74170;SDS011;62526;50.948;6.590;2022-09-03T07:19:31;7.70;;;2.40;;
74170;SDS011;62526;50.948;6.590;2022-09-03T07:21:59;6.10;;;2.15;;
74170;SDS011;62526;50.948;6.590;2022-09-03T07:24:26;4.18;;;2.28;;
74170;SDS011;62526;50.948;6.590;2022-09-03T07:26:53;4.37;;;2.33;;
74170;SDS011;62526;50.948;6.590;2022-09-03T07:29:20;8.60;;;2.42;;
74170;SDS011;62526;50.948;6.590;2022-09-03T07:31:48;5.60;;;2.42;;
74170;SDS011;62526;50.948;6.590;2022-09-03T07:34:14;9.45;;;2.05;;
74170;SDS011;62526;50.948;6.590;2022-09-03T07:36:43;2.67;;;1.70;;
74170;SDS011;62526;50.948;6.590;2022-09-03T07:39:10;5.82;;;2.10;;
74170;SDS011;62526;50.948;6.590;2022-09-03T07:41:36;4.62;;;1.80;;
74170;SDS011;62526;50.948;6.590;2022-09-03T07:44:03;4.62;;;1.50;;
74170;SDS011;62526;50.948;6.590;2022-09-03T07:46:31;13.48;;;1.92;;
74170;SDS011;62526;50.948;6.590;2022-09-03T07:48:58;5.18;;;1.20;;
74170;SDS011;62526;50.948;6.590;2022-09-03T07:51:26;11.30;;;1.83;;
74170;SDS011;62526;50.948;6.590;2022-09-03T07:53:53;3.00;;;1.40;;
74170;SDS011;62526;50.948;6.590;2022-09-03T07:56:19;5.05;;;1.50;;
74170;SDS011;62526;50.948;6.590;2022-09-03T07:58:46;6.20;;;1.40;;
74170;SDS011;62526;50.948;6.590;2022-09-03T08:01:14;6.43;;;1.87;;
74170;SDS011;62526;50.948;6.590;2022-09-03T08:03:42;5.00;;;1.37;;
74170;SDS011;62526;50.948;6.590;2022-09-03T08:06:09;1.80;;;1.55;;
74170;SDS011;62526;50.948;6.590;2022-09-03T08:08:36;5.82;;;1.67;;
74170;SDS011;62526;50.948;6.590;2022-09-03T08:11:04;3.83;;;1.67;;
74170;SDS011;62526;50.948;6.590;2022-09-03T08:13:33;3.87;;;1.52;;
74170;SDS011;62526;50.948;6.590;2022-09-03T08:16:00;9.70;;;1.45;;
74170;SDS011;62526;50.948;6.590;2022-09-03T08:18:29;9.73;;;2.15;;
74170;SDS011;62526;50.948;6.590;2022-09-03T08:20:58;3.25;;;1.35;;
74170;SDS011;62526;50.948;6.590;2022-09-03T08:23:24;3.12;;;1.50;;
74170;SDS011;62526;50.948;6.590;2022-09-03T08:25:57;2.20;;;1.58;;
74170;SDS011;62526;50.948;6.590;2022-09-03T08:28:23;4.37;;;1.45;;
74170;SDS011;62526;50.948;6.590;2022-09-03T08:30:51;4.80;;;1.52;;
74170;SDS011;62526;50.948;6.590;2022-09-03T08:33:18;2.65;;;1.50;;
74170;SDS011;62526;50.948;6.590;2022-09-03T08:35:51;7.22;;;1.83;;
74170;SDS011;62526;50.948;6.590;2022-09-03T08:38:18;4.45;;;1.90;;
74170;SDS011;62526;50.948;6.590;2022-09-03T08:40:45;3.37;;;1.45;;
74170;SDS011;62526;50.948;6.590;2022-09-03T08:43:14;1.98;;;1.58;;
74170;SDS011;62526;50.948;6.590;2022-09-03T08:45:41;3.85;;;1.55;;
74170;SDS011;62526;50.948;6.590;2022-09-03T08:48:09;6.50;;;1.50;;
74170;SDS011;62526;50.948;6.590;2022-09-03T08:50:40;5.62;;;1.70;;
74170;SDS011;62526;50.948;6.590;2022-09-03T08:53:08;2.12;;;1.65;;
74170;SDS011;62526;50.948;6.590;2022-09-03T08:55:37;5.20;;;1.45;;
74170;SDS011;62526;50.948;6.590;2022-09-03T08:58:13;2.12;;;1.48;;
74170;SDS011;62526;50.948;6.590;2022-09-03T09:03:56;1.60;;;1.45;;
74170;SDS011;62526;50.948;6.590;2022-09-03T09:09:37;3.58;;;1.80;;
74170;SDS011;62526;50.948;6.590;2022-09-03T09:12:20;4.70;;;1.87;;
74170;SDS011;62526;50.948;6.590;2022-09-03T09:15:04;3.17;;;1.55;;
74170;SDS011;62526;50.948;6.590;2022-09-03T09:17:48;3.20;;;1.60;;
74170;SDS011;62526;50.948;6.590;2022-09-03T09:23:04;4.87;;;1.80;;
74170;SDS011;62526;50.948;6.590;2022-09-03T09:25:30;3.55;;;1.80;;
74170;SDS011;62526;50.948;6.590;2022-09-03T09:27:59;3.22;;;1.65;;
74170;SDS011;62526;50.948;6.590;2022-09-03T09:30:29;3.45;;;1.77;;
74170;SDS011;62526;50.948;6.590;2022-09-03T09:32:56;1.65;;;1.52;;
74170;SDS011;62526;50.948;6.590;2022-09-03T09:35:24;3.62;;;1.58;;
74170;SDS011;62526;50.948;6.590;2022-09-03T09:37:54;2.20;;;1.50;;
74170;SDS011;62526;50.948;6.590;2022-09-03T09:40:21;2.30;;;1.60;;
74170;SDS011;62526;50.948;6.590;2022-09-03T09:43:01;4.12;;;1.90;;
74170;SDS011;62526;50.948;6.590;2022-09-03T09:45:18;6.40;;;1.52;;
74170;SDS011;62526;50.948;6.590;2022-09-03T09:47:46;4.62;;;2.03;;
74170;SDS011;62526;50.948;6.590;2022-09-03T09:50:16;5.15;;;1.70;;
74170;SDS011;62526;50.948;6.590;2022-09-03T09:52:41;3.45;;;1.85;;
74170;SDS011;62526;50.948;6.590;2022-09-03T09:55:13;2.20;;;1.55;;
74170;SDS011;62526;50.948;6.590;2022-09-03T09:57:39;1.73;;;1.48;;
74170;SDS011;62526;50.948;6.590;2022-09-03T10:00:07;2.85;;;1.50;;
74170;SDS011;62526;50.948;6.590;2022-09-03T10:02:36;2.80;;;1.70;;
74170;SDS011;62526;50.948;6.590;2022-09-03T10:05:36;4.60;;;1.80;;
74170;SDS011;62526;50.948;6.590;2022-09-03T10:10:20;9.80;;;2.25;;
74170;SDS011;62526;50.948;6.590;2022-09-03T10:12:58;6.32;;;2.12;;
74170;SDS011;62526;50.948;6.590;2022-09-03T10:15:40;8.73;;;1.92;;
74170;SDS011;62526;50.948;6.590;2022-09-03T10:18:13;4.00;;;1.80;;
74170;SDS011;62526;50.948;6.590;2022-09-03T10:20:44;2.72;;;2.10;;
74170;SDS011;62526;50.948;6.590;2022-09-03T10:23:14;4.78;;;2.17;;
74170;SDS011;62526;50.948;6.590;2022-09-03T10:28:33;3.37;;;1.95;;
74170;SDS011;62526;50.948;6.590;2022-09-03T10:31:12;2.92;;;1.90;;
74170;SDS011;62526;50.948;6.590;2022-09-03T10:33:52;6.75;;;2.00;;
74170;SDS011;62526;50.948;6.590;2022-09-03T10:36:23;7.22;;;2.10;;
74170;SDS011;62526;50.948;6.590;2022-09-03T10:38:52;3.17;;;1.98;;
74170;SDS011;62526;50.948;6.590;2022-09-03T10:44:14;3.65;;;2.08;;
74170;SDS011;62526;50.948;6.590;2022-09-03T10:49:37;2.65;;;2.05;;
74170;SDS011;62526;50.948;6.590;2022-09-03T10:52:13;8.52;;;2.30;;
74170;SDS011;62526;50.948;6.590;2022-09-03T10:54:56;5.72;;;2.12;;
74170;SDS011;62526;50.948;6.590;2022-09-03T10:57:40;4.78;;;2.20;;
74170;SDS011;62526;50.948;6.590;2022-09-03T11:00:10;4.22;;;2.20;;
74170;SDS011;62526;50.948;6.590;2022-09-03T11:02:43;2.95;;;2.00;;
74170;SDS011;62526;50.948;6.590;2022-09-03T11:05:22;5.97;;;1.92;;
74170;SDS011;62526;50.948;6.590;2022-09-03T11:08:03;3.87;;;2.12;;
74170;SDS011;62526;50.948;6.590;2022-09-03T11:10:41;6.28;;;2.30;;
74170;SDS011;62526;50.948;6.590;2022-09-03T11:13:09;7.75;;;2.25;;
74170;SDS011;62526;50.948;6.590;2022-09-03T11:15:40;13.15;;;2.20;;
74170;SDS011;62526;50.948;6.590;2022-09-03T11:18:46;5.20;;;2.12;;
74170;SDS011;62526;50.948;6.590;2022-09-03T11:20:57;4.03;;;2.00;;
74170;SDS011;62526;50.948;6.590;2022-09-03T11:23:23;6.43;;;2.20;;
74170;SDS011;62526;50.948;6.590;2022-09-03T11:25:52;4.12;;;2.25;;
74170;SDS011;62526;50.948;6.590;2022-09-03T11:33:40;8.13;;;2.15;;
74170;SDS011;62526;50.948;6.590;2022-09-03T11:36:07;6.75;;;2.15;;
74170;SDS011;62526;50.948;6.590;2022-09-03T11:38:34;3.55;;;2.10;;
74170;SDS011;62526;50.948;6.590;2022-09-03T11:43:38;2.70;;;2.03;;
74170;SDS011;62526;50.948;6.590;2022-09-03T11:46:08;3.62;;;2.10;;
74170;SDS011;62526;50.948;6.590;2022-09-03T11:48:41;3.83;;;2.40;;
74170;SDS011;62526;50.948;6.590;2022-09-03T11:56:19;4.57;;;2.70;;
74170;SDS011;62526;50.948;6.590;2022-09-03T11:58:46;3.42;;;2.40;;
74170;SDS011;62526;50.948;6.590;2022-09-03T12:01:14;3.58;;;2.42;;
74170;SDS011;62526;50.948;6.590;2022-09-03T12:03:48;3.45;;;2.12;;
74170;SDS011;62526;50.948;6.590;2022-09-03T12:06:34;3.22;;;2.45;;
74170;SDS011;62526;50.948;6.590;2022-09-03T12:09:13;3.20;;;1.90;;
74170;SDS011;62526;50.948;6.590;2022-09-03T12:11:58;8.25;;;2.30;;
74170;SDS011;62526;50.948;6.590;2022-09-03T12:15:34;5.18;;;2.42;;
74170;SDS011;62526;50.948;6.590;2022-09-03T12:17:41;4.75;;;2.78;;
74170;SDS011;62526;50.948;6.590;2022-09-03T12:20:09;5.62;;;2.87;;
74170;SDS011;62526;50.948;6.590;2022-09-03T12:22:34;5.65;;;2.30;;
74170;SDS011;62526;50.948;6.590;2022-09-03T12:27:33;4.18;;;2.25;;
74170;SDS011;62526;50.948;6.590;2022-09-03T12:30:01;4.90;;;2.30;;
74170;SDS011;62526;50.948;6.590;2022-09-03T12:32:29;2.47;;;2.28;;
74170;SDS011;62526;50.948;6.590;2022-09-03T12:34:56;7.30;;;2.35;;
74170;SDS011;62526;50.948;6.590;2022-09-03T12:37:24;3.83;;;2.60;;
74170;SDS011;62526;50.948;6.590;2022-09-03T12:39:52;4.43;;;2.42;;
74170;SDS011;62526;50.948;6.590;2022-09-03T12:42:22;2.62;;;2.30;;
74170;SDS011;62526;50.948;6.590;2022-09-03T12:44:48;3.42;;;2.70;;
74170;SDS011;62526;50.948;6.590;2022-09-03T12:47:17;6.20;;;2.75;;
74170;SDS011;62526;50.948;6.590;2022-09-03T12:49:45;3.78;;;2.67;;
74170;SDS011;62526;50.948;6.590;2022-09-03T12:54:57;3.55;;;2.22;;
74170;SDS011;62526;50.948;6.590;2022-09-03T12:57:29;6.82;;;3.03;;
74170;SDS011;62526;50.948;6.590;2022-09-03T12:59:57;4.03;;;2.45;;
74170;SDS011;62526;50.948;6.590;2022-09-03T13:02:25;2.42;;;2.10;;
74170;SDS011;62526;50.948;6.590;2022-09-03T13:04:50;6.22;;;2.47;;
74170;SDS011;62526;50.948;6.590;2022-09-03T13:07:22;3.22;;;2.47;;
74170;SDS011;62526;50.948;6.590;2022-09-03T13:09:48;3.53;;;2.20;;
74170;SDS011;62526;50.948;6.590;2022-09-03T13:12:21;4.65;;;2.55;;
74170;SDS011;62526;50.948;6.590;2022-09-03T13:14:48;4.60;;;2.60;;
74170;SDS011;62526;50.948;6.590;2022-09-03T13:17:20;3.05;;;2.20;;
74170;SDS011;62526;50.948;6.590;2022-09-03T13:19:57;4.90;;;2.50;;
74170;SDS011;62526;50.948;6.590;2022-09-03T13:23:33;2.67;;;2.17;;
74170;SDS011;62526;50.948;6.590;2022-09-03T13:25:29;2.70;;;2.50;;
74170;SDS011;62526;50.948;6.590;2022-09-03T13:30:51;6.10;;;2.42;;
74170;SDS011;62526;50.948;6.590;2022-09-03T13:33:23;3.65;;;2.75;;
74170;SDS011;62526;50.948;6.590;2022-09-03T13:35:52;5.37;;;2.80;;
74170;SDS011;62526;50.948;6.590;2022-09-03T13:38:24;4.82;;;2.60;;
74170;SDS011;62526;50.948;6.590;2022-09-03T13:43:36;4.95;;;2.30;;
74170;SDS011;62526;50.948;6.590;2022-09-03T13:46:26;2.28;;;2.08;;
74170;SDS011;62526;50.948;6.590;2022-09-03T13:48:56;3.50;;;2.40;;
74170;SDS011;62526;50.948;6.590;2022-09-03T13:51:38;4.93;;;2.60;;
74170;SDS011;62526;50.948;6.590;2022-09-03T13:54:16;3.35;;;2.60;;
74170;SDS011;62526;50.948;6.590;2022-09-03T13:56:54;2.87;;;2.28;;
74170;SDS011;62526;50.948;6.590;2022-09-03T14:02:15;4.70;;;2.50;;
74170;SDS011;62526;50.948;6.590;2022-09-03T14:07:18;2.90;;;2.50;;
74170;SDS011;62526;50.948;6.590;2022-09-03T14:09:53;3.28;;;2.60;;
74170;SDS011;62526;50.948;6.590;2022-09-03T14:12:52;6.00;;;2.60;;
74170;SDS011;62526;50.948;6.590;2022-09-03T14:15:06;5.82;;;2.85;;
74170;SDS011;62526;50.948;6.590;2022-09-03T14:20:31;3.70;;;2.58;;
74170;SDS011;62526;50.948;6.590;2022-09-03T14:25:51;4.22;;;2.50;;
74170;SDS011;62526;50.948;6.590;2022-09-03T14:28:28;4.95;;;2.40;;
74170;SDS011;62526;50.948;6.590;2022-09-03T14:31:35;6.32;;;2.67;;
74170;SDS011;62526;50.948;6.590;2022-09-03T14:39:57;3.05;;;2.20;;
74170;SDS011;62526;50.948;6.590;2022-09-03T14:42:30;4.60;;;2.65;;
74170;SDS011;62526;50.948;6.590;2022-09-03T14:45:12;3.08;;;2.50;;
74170;SDS011;62526;50.948;6.590;2022-09-03T14:50:36;6.03;;;2.72;;
74170;SDS011;62526;50.948;6.590;2022-09-03T14:56:25;2.45;;;2.25;;
74170;SDS011;62526;50.948;6.590;2022-09-03T14:58:59;5.03;;;2.55;;
74170;SDS011;62526;50.948;6.590;2022-09-03T15:01:38;5.93;;;2.42;;
74170;SDS011;62526;50.948;6.590;2022-09-03T15:04:13;4.80;;;2.42;;
74170;SDS011;62526;50.948;6.590;2022-09-03T15:06:48;2.95;;;2.30;;
74170;SDS011;62526;50.948;6.590;2022-09-03T15:09:26;5.57;;;2.97;;
74170;SDS011;62526;50.948;6.590;2022-09-03T15:11:56;4.32;;;2.35;;
74170;SDS011;62526;50.948;6.590;2022-09-03T15:14:28;4.50;;;2.35;;
74170;SDS011;62526;50.948;6.590;2022-09-03T15:16:59;4.15;;;2.58;;
74170;SDS011;62526;50.948;6.590;2022-09-03T15:22:06;5.45;;;2.50;;
74170;SDS011;62526;50.948;6.590;2022-09-03T15:24:50;3.45;;;2.12;;
74170;SDS011;62526;50.948;6.590;2022-09-03T15:27:37;3.78;;;2.40;;
74170;SDS011;62526;50.948;6.590;2022-09-03T15:30:09;3.40;;;2.67;;
74170;SDS011;62526;50.948;6.590;2022-09-03T15:32:41;5.00;;;2.30;;
74170;SDS011;62526;50.948;6.590;2022-09-03T15:35:06;3.75;;;2.20;;
74170;SDS011;62526;50.948;6.590;2022-09-03T15:37:36;4.30;;;2.30;;
74170;SDS011;62526;50.948;6.590;2022-09-03T15:40:05;5.57;;;2.30;;
74170;SDS011;62526;50.948;6.590;2022-09-03T15:42:32;3.08;;;2.05;;
74170;SDS011;62526;50.948;6.590;2022-09-03T15:45:02;2.62;;;2.28;;
74170;SDS011;62526;50.948;6.590;2022-09-03T15:47:31;4.03;;;2.45;;
74170;SDS011;62526;50.948;6.590;2022-09-03T15:50:15;4.12;;;2.37;;
74170;SDS011;62526;50.948;6.590;2022-09-03T15:52:58;5.78;;;2.47;;
74170;SDS011;62526;50.948;6.590;2022-09-03T15:55:34;3.83;;;2.55;;
74170;SDS011;62526;50.948;6.590;2022-09-03T15:58:34;2.37;;;2.17;;
74170;SDS011;62526;50.948;6.590;2022-09-03T16:00:58;4.03;;;2.40;;
74170;SDS011;62526;50.948;6.590;2022-09-03T16:03:32;4.30;;;2.30;;
74170;SDS011;62526;50.948;6.590;2022-09-03T16:06:24;2.53;;;2.20;;
74170;SDS011;62526;50.948;6.590;2022-09-03T16:08:52;3.72;;;2.20;;
74170;SDS011;62526;50.948;6.590;2022-09-03T16:11:28;4.20;;;2.83;;
74170;SDS011;62526;50.948;6.590;2022-09-03T16:13:59;2.65;;;2.20;;
74170;SDS011;62526;50.948;6.590;2022-09-03T16:16:24;2.87;;;2.42;;
74170;SDS011;62526;50.948;6.590;2022-09-03T16:21:37;5.15;;;2.83;;
74170;SDS011;62526;50.948;6.590;2022-09-03T16:24:14;2.55;;;2.20;;
74170;SDS011;62526;50.948;6.590;2022-09-03T16:27:16;2.53;;;2.30;;
74170;SDS011;62526;50.948;6.590;2022-09-03T16:29:26;2.35;;;2.05;;
74170;SDS011;62526;50.948;6.590;2022-09-03T16:31:59;3.80;;;2.00;;
74170;SDS011;62526;50.948;6.590;2022-09-03T16:37:22;3.00;;;2.10;;
74170;SDS011;62526;50.948;6.590;2022-09-03T16:39:56;2.90;;;2.00;;